Latest Weather Observations for Coolangatta

IDQ60801

Issued at 8:32 pm EST Friday 6 March 2015 (issued every 30 minutes, with the page automatically refreshed every 10 minutes)

About weather observations | Map of weather stations | Latest weather observations for QLD | Other Formats
Station Details ID: 040717 Name: COOLANGATTA Lat: -28.17 Lon: 153.51 Height: 4.0 m
Data from the previous 72 hours. | See also: Recent months at Coolangatta
Date/Time
EST
Temp
°C
App
Temp
°C
Dew
Point
Rel
Hum
%
Delta-T
°C
Wind Press
QNH
hPa
Press
MSL
hPa
Rain
since 9 am
mm
Dir
 
Spd
km/h
Gust
km/h
Spd
kts
Gust
kts
06/08:30pm 24.2 24.0 18.6 71 3.6 N 17 22 9 12 1008.2 1008.1 0.0
06/08:00pm 24.1 23.8 18.3 70 3.7 N 17 20 9 11 1007.8 1007.7 0.0
06/07:30pm 24.4 24.5 18.3 69 3.8 N 15 19 8 10 1007.6 1007.5 0.0
06/07:00pm 24.7 24.6 17.9 66 4.3 NNE 15 19 8 10 1007.3 1007.2 0.0
06/06:30pm 24.6 24.1 17.8 66 4.3 NNE 17 20 9 11 1006.9 1006.8 0.0
06/06:00pm 24.8 24.4 18.0 66 4.3 NNE 17 20 9 11 1006.8 1006.7 0.0
06/05:30pm 25.2 25.0 18.4 66 4.3 NNE 17 20 9 11 1006.6 1006.5 0.0
06/05:00pm 25.5 25.5 18.2 64 4.6 NNE 15 20 8 11 1006.8 1006.7 0.0
06/04:30pm 25.7 25.2 17.9 62 4.9 NNE 17 20 9 11 1006.6 1006.5 0.0
06/04:00pm 25.8 24.9 18.2 63 4.8 NNE 20 24 11 13 1006.2 1006.1 0.0
06/03:30pm 26.0 27.0 20.3 71 3.7 NNE 15 20 8 11 1006.2 1006.1 0.0
06/03:00pm 25.8 26.8 19.4 67 4.1 NNE 13 20 7 11 1006.6 1006.5 0.0
06/02:30pm 25.9 26.7 19.1 66 4.4 NE 13 20 7 11 1006.9 1006.8 0.0
06/02:00pm 26.1 26.7 18.5 63 4.8 NE 13 20 7 11 1007.4 1007.3 0.0
06/01:30pm 26.4 27.0 17.7 58 5.5 NE 11 19 6 10 1008.3 1008.2 0.0
06/01:00pm 27.3 28.3 19.4 62 5.1 ENE 13 17 7 9 1008.6 1008.5 0.0
06/12:30pm 25.7 25.9 17.6 61 5.1 NE 13 17 7 9 1009.2 1009.1 0.0
06/12:00pm 26.4 27.5 18.0 60 5.3 E 9 19 5 10 1009.5 1009.4 0.0
06/11:30am 25.1 26.6 18.1 65 4.4 SSE 7 17 4 9 1010.0 1009.9 0.0
06/11:00am 25.6 25.8 19.3 68 4.1 SSE 17 20 9 11 1010.2 1010.1 0.0
06/10:30am 25.2 26.2 18.6 67 4.2 S 11 20 6 11 1010.4 1010.3 0.0
06/10:00am 25.7 26.7 18.6 65 4.5 SSE 11 19 6 10 1010.5 1010.4 0.0
06/09:30am 24.7 25.7 18.6 69 3.9 S 11 15 6 8 1010.6 1010.5 0.0
06/09:00am 24.1 25.3 18.3 70 3.7 SSW 9 13 5 7 1010.3 1010.2 0.0
06/08:30am 23.7 25.0 18.4 72 3.3 SW 9 13 5 7 1010.1 1010.0 0.0
06/08:00am 23.4 24.8 18.7 75 3.0 SSW 9 11 5 6 1009.9 1009.8 0.0
06/07:30am 23.4 25.1 18.5 74 3.1 SSW 7 9 4 5 1009.6 1009.5 0.0
06/07:00am 22.9 24.5 18.2 75 2.9 SSW 7 9 4 5 1009.5 1009.4 0.0
06/06:30am 22.6 23.8 18.2 76 2.8 SW 9 15 5 8 1009.2 1009.1 0.0
06/05:30am 22.7 23.6 17.6 73 3.2 SSW 9 13 5 7 1008.9 1008.8 0.0
06/05:00am 22.7 24.0 17.6 73 3.2 S 7 11 4 6 1009.0 1008.9 0.0
06/04:30am 23.2 24.0 17.2 69 3.7 S 9 15 5 8 1008.8 1008.7 0.0
06/04:00am 23.8 23.1 17.3 67 4.0 SSE 17 30 9 16 1008.7 1008.6 0.0
06/03:30am 23.9 22.2 17.2 66 4.1 SE 22 33 12 18 1008.7 1008.6 0.0
06/03:00am 23.9 21.7 17.9 69 3.8 SE 26 37 14 20 1009.0 1008.9 0.0
06/02:30am 24.1 21.1 17.8 68 3.9 SE 30 43 16 23 1009.2 1009.1 0.0
06/02:00am 24.1 22.9 17.6 67 4.1 SSE 20 33 11 18 1009.2 1009.1 0.0
06/01:30am 24.2 22.2 17.4 65 4.2 SSE 24 43 13 23 1009.3 1009.2 0.0
06/01:00am 24.4 22.2 17.9 67 4.1 SSE 26 43 14 23 1009.4 1009.3 0.0
06/12:30am 24.6 22.0 17.8 66 4.3 SSE 28 43 15 23 1009.6 1009.5 0.0
06/12:00am 24.7 21.5 18.2 67 4.1 SSE 32 44 17 24 1009.5 1009.4 0.0
 
Date/Time
EST
Temp
°C
App
Temp
°C
Dew
Point
Rel
Hum
%
Delta-T
°C
Wind Press
QNH
hPa
Press
MSL
hPa
Rain
since 9 am
mm
Dir
 
Spd
km/h
Gust
km/h
Spd
kts
Gust
kts
05/11:30pm 25.0 21.7 18.0 65 4.4 SSE 32 46 17 25 1009.4 1009.3 0.0
05/11:15pm 25.0 21.8 18.2 66 4.3 SSE 32 50 17 27 1009.2 1009.1 0.0
05/11:00pm 25.3 21.9 18.2 64 4.5 SSE 33 44 18 24 1009.2 1009.1 0.0
05/10:36pm 25.8 22.6 18.2 63 4.8 SSE 32 52 17 28 1009.0 1008.9 0.0
05/10:30pm 25.9 23.7 18.6 64 4.6 SSE 28 44 15 24 1009.1 1009.0 0.0
05/10:19pm 26.2 23.7 18.1 61 5.1 SSE 28 46 15 25 1009.0 1008.9 0.0
05/10:00pm 26.3 24.0 19.4 66 4.5 SSE 30 44 16 24 1008.9 1008.8 0.0
05/09:30pm 26.8 25.4 19.7 65 4.6 SSE 26 33 14 18 1008.7 1008.6 0.0
05/09:00pm 27.1 26.2 21.4 71 3.8 SSE 28 41 15 22 1008.2 1008.1 0.0
05/08:30pm 27.4 27.0 22.3 73 3.4 SSE 28 39 15 21 1007.7 1007.6 0.0
05/08:00pm 27.7 29.7 23.9 80 2.6 SSE 20 35 11 19 1007.1 1007.0 0.0
05/07:30pm 27.6 29.9 24.4 83 2.2 SE 20 32 11 17 1006.0 1005.9 0.0
05/07:00pm 27.4 31.2 24.7 85 1.9 SE 13 15 7 8 1005.1 1005.0 0.0
05/06:30pm 27.4 30.8 24.7 85 1.9 NNE 15 17 8 9 1003.7 1003.6 0.0
05/06:00pm 27.7 31.0 24.5 83 2.2 N 15 19 8 10 1003.3 1003.2 0.0
05/05:30pm 28.2 30.6 24.2 79 2.8 NNW 19 24 10 13 1002.8 1002.7 0.0
05/05:00pm 28.7 29.8 24.3 77 3.1 N 26 35 14 19 1002.4 1002.3 0.0
05/04:30pm 29.5 31.2 24.6 75 3.4 N 24 33 13 18 1002.3 1002.2 0.0
05/04:00pm 30.2 30.8 24.1 70 4.3 N 28 37 15 20 1002.1 1002.0 0.0
05/03:30pm 30.3 31.4 23.7 68 4.6 N 24 32 13 17 1002.1 1002.0 0.0
05/03:00pm 30.8 31.3 24.0 67 4.7 N 28 37 15 20 1002.2 1002.1 0.0
05/02:30pm 30.3 30.5 23.5 67 4.7 N 28 39 15 21 1002.5 1002.4 0.0
05/02:00pm 31.2 30.7 23.6 64 5.3 N 32 39 17 21 1002.9 1002.8 0.0
05/01:30pm 32.8 32.0 22.3 54 7.2 N 30 39 16 21 1003.4 1003.3 0.0
05/01:00pm 33.4 33.3 22.2 52 7.7 N 26 32 14 17 1004.0 1003.9 0.0
05/12:30pm 33.4 33.0 20.9 48 8.4 N 24 33 13 18 1004.5 1004.4 0.0
05/12:00pm 32.9 32.4 20.8 49 8.1 NNW 24 35 13 19 1004.7 1004.6 0.0
05/11:30am 32.8 31.7 20.3 47 8.3 NW 26 35 14 19 1005.2 1005.1 0.0
05/11:00am 32.2 31.0 20.1 48 8.0 NNW 26 35 14 19 1005.5 1005.4 0.0
05/10:30am 29.3 27.5 22.3 66 4.7 N 35 44 19 24 1005.8 1005.7 0.0
05/10:00am 28.8 27.7 22.5 68 4.3 N 32 37 17 20 1006.6 1006.5 0.0
05/09:30am 28.8 27.5 21.3 64 5.0 NNW 30 39 16 21 1006.8 1006.7 0.0
05/09:00am 28.8 29.1 20.8 62 5.3 NNW 20 28 11 15 1007.3 1007.2 0.0
05/08:30am 27.6 27.3 20.4 65 4.7 N 22 32 12 17 1007.4 1007.3 0.0
05/08:00am 27.1 27.8 20.4 66 4.4 NW 17 26 9 14 1007.7 1007.6 0.0
05/07:30am 25.9 25.9 20.2 71 3.7 NNW 20 28 11 15 1007.6 1007.5 0.0
05/07:00am 25.1 25.2 20.4 75 3.1 NNW 20 30 11 16 1007.6 1007.5 0.0
05/06:30am 24.3 25.0 20.4 79 2.5 NNW 17 26 9 14 1007.7 1007.6 0.0
05/06:00am 23.7 23.9 20.2 81 2.3 NNW 19 28 10 15 1007.7 1007.6 0.0
05/05:30am 23.5 23.4 20.0 81 2.3 NNW 20 30 11 16 1007.5 1007.4 0.0
05/05:00am 23.6 24.0 19.9 80 2.4 NNW 17 28 9 15 1007.5 1007.4 0.0
05/04:30am 23.6 24.4 19.9 80 2.4 NNW 15 26 8 14 1007.5 1007.4 0.0
05/04:00am 23.6 23.7 19.9 80 2.4 NNW 19 28 10 15 1007.7 1007.6 0.0
05/03:30am 23.5 24.4 20.0 81 2.3 NW 15 22 8 12 1007.8 1007.7 0.0
05/03:00am 23.5 24.7 20.0 81 2.3 NW 13 20 7 11 1008.0 1007.9 0.0
05/02:30am 23.6 24.1 20.1 81 2.3 NW 17 20 9 11 1008.4 1008.3 0.0
05/02:00am 23.5 23.6 20.0 81 2.3 NW 19 26 10 14 1008.8 1008.7 0.0
05/01:30am 23.5 24.0 20.0 81 2.3 NW 17 24 9 13 1009.2 1009.1 0.0
05/01:00am 23.7 24.6 20.0 80 2.4 NW 15 22 8 12 1009.7 1009.6 0.0
05/12:30am 23.8 24.3 20.1 80 2.4 NW 17 20 9 11 1010.2 1010.1 0.0
05/12:00am 23.8 24.6 19.9 79 2.5 NW 15 22 8 12 1010.5 1010.4 0.0
 
Date/Time
EST
Temp
°C
App
Temp
°C
Dew
Point
Rel
Hum
%
Delta-T
°C
Wind Press
QNH
hPa
Press
MSL
hPa
Rain
since 9 am
mm
Dir
 
Spd
km/h
Gust
km/h
Spd
kts
Gust
kts
04/11:30pm 24.2 24.6 19.9 77 2.8 NW 17 24 9 13 1010.9 1010.8 0.0
04/11:00pm 25.0 25.1 20.0 74 3.2 NNW 19 28 10 15 1011.2 1011.1 0.0
04/10:30pm 25.0 25.1 20.3 75 3.1 NNW 20 26 11 14 1011.5 1011.4 0.0
04/10:00pm 25.0 25.4 20.7 77 2.8 NNW 19 30 10 16 1011.7 1011.6 0.0
04/09:30pm 25.2 25.1 20.7 76 2.9 N 22 28 12 15 1011.9 1011.8 0.0
04/09:00pm 25.2 25.4 20.5 75 3.1 N 20 32 11 17 1012.1 1012.0 0.0
04/08:30pm 25.2 25.1 20.7 76 2.9 N 22 28 12 15 1012.1 1012.0 0.0
04/08:00pm 25.3 25.4 20.3 74 3.3 N 20 26 11 14 1012.1 1012.0 0.0
04/07:30pm 25.4 25.4 20.2 73 3.4 N 20 28 11 15 1011.8 1011.7 0.0
04/07:00pm 25.3 25.3 20.1 73 3.4 N 20 26 11 14 1011.6 1011.5 0.0
04/06:30pm 25.3 25.4 19.9 72 3.5 N 19 26 10 14 1011.2 1011.1 0.0
04/06:00pm 25.7 25.5 19.8 70 3.8 N 20 26 11 14 1011.1 1011.0 0.0
04/05:30pm 26.1 25.8 19.5 67 4.3 N 20 24 11 13 1011.1 1011.0 0.0
04/05:00pm 26.7 26.3 19.3 64 4.8 N 20 26 11 14 1011.0 1010.9 0.0
04/04:30pm 26.9 26.4 19.0 62 5.1 N 20 26 11 14 1011.0 1010.9 0.0
04/04:00pm 27.2 26.7 19.0 61 5.3 NNE 20 28 11 15 1011.0 1010.9 0.0
04/03:30pm 27.6 27.0 19.7 62 5.1 NNE 22 28 12 15 1011.1 1011.0 0.0
04/03:00pm 28.0 27.8 19.8 61 5.4 NNE 20 26 11 14 1011.3 1011.2 0.0
04/02:30pm 27.5 27.3 19.3 61 5.3 NNE 19 24 10 13 1011.6 1011.5 0.0
04/02:00pm 27.6 27.2 19.4 61 5.3 NNE 20 26 11 14 1012.0 1011.9 0.0
04/01:30pm 27.9 27.7 19.7 61 5.3 NNE 20 24 11 13 1012.4 1012.3 0.0
04/01:00pm 27.6 27.1 18.6 58 5.8 NNE 19 24 10 13 1012.9 1012.8 0.0
04/12:30pm 27.0 26.3 18.6 60 5.4 NNE 20 26 11 14 1013.1 1013.0 0.0
04/12:00pm 27.4 26.9 18.7 59 5.6 NNE 19 24 10 13 1013.6 1013.5 0.0
04/11:30am 27.2 26.8 19.0 61 5.3 NNE 19 22 10 12 1014.0 1013.9 0.0
04/11:00am 26.9 26.8 18.7 60 5.2 NNE 17 20 9 11 1014.2 1014.1 0.0
04/10:30am 27.0 26.9 18.8 60 5.3 NNE 17 20 9 11 1014.6 1014.5 0.0
04/10:00am 26.6 26.1 17.9 59 5.5 N 17 22 9 12 1014.8 1014.7 0.0
04/09:30am 26.8 26.9 18.4 60 5.3 NNE 15 20 8 11 1014.8 1014.7 0.0
04/09:00am 26.6 26.6 18.2 60 5.3 N 15 19 8 10 1014.8 1014.7 0.0
04/08:30am 26.0 27.6 18.2 62 4.9 NW 7 13 4 7 1014.7 1014.6 0.0
04/08:00am 25.3 27.4 19.4 70 3.8 WSW 7 11 4 6 1014.6 1014.5 0.0
04/07:30am 24.0 26.3 19.9 78 2.6 SW 7 9 4 5 1014.3 1014.2 0.0
04/07:00am 22.6 24.8 19.6 83 1.9 SW 7 9 4 5 1014.2 1014.1 0.0
04/06:30am 21.6 24.3 19.5 88 1.3 SW 4 7 2 4 1013.7 1013.6 0.0
04/06:00am 20.6 22.6 18.7 89 1.2 SSW 6 7 3 4 1013.7 1013.6 0.0
04/05:30am 20.5 23.3 18.8 90 1.1 S 2 7 1 4 1013.5 1013.4 0.0
04/05:00am 20.3 23.1 18.8 91 0.9 SSW 2 7 1 4 1013.2 1013.1 0.0
04/04:30am 20.3 23.5 18.8 91 0.9 CALM 0 0 0 0 1013.0 1012.9 0.0
04/04:00am 20.3 23.1 18.8 91 0.9 SW 2 6 1 3 1012.8 1012.7 0.0
04/03:30am 20.4 22.8 18.7 90 1.1 SSW 4 6 2 3 1012.9 1012.8 0.0
04/03:00am 20.4 22.4 18.7 90 1.1 SSW 6 7 3 4 1013.1 1013.0 0.0
04/02:30am 21.2 24.2 19.3 89 1.2 WSW 2 6 1 3 1013.3 1013.2 0.0
04/02:00am 21.7 24.0 19.4 87 1.5 WSW 6 7 3 4 1013.6 1013.5 0.0
04/01:30am 21.7 23.8 19.4 87 1.5 WSW 7 9 4 5 1014.2 1014.1 0.0
04/01:00am 22.0 25.5 19.5 86 1.6 CALM 0 0 0 0 1014.6 1014.5 0.0
04/12:30am 22.1 24.3 19.3 84 1.8 SW 6 9 3 5 1015.0 1014.9 0.0
04/12:00am 22.2 24.6 19.6 85 1.7 SW 6 7 3 4 1015.5 1015.4 0.0
 
Date/Time
EST
Temp
°C
App
Temp
°C
Dew
Point
Rel
Hum
%
Delta-T
°C
Wind Press
QNH
hPa
Press
MSL
hPa
Rain
since 9 am
mm
Dir
 
Spd
km/h
Gust
km/h
Spd
kts
Gust
kts
03/11:30pm 22.5 24.7 19.7 84 1.8 SW 7 9 4 5 1015.6 1015.5 0.0
03/11:00pm 22.6 24.9 19.4 82 2.0 SW 6 7 3 4 1015.9 1015.8 0.0
03/10:30pm 22.5 24.7 19.3 82 2.0 SW 6 7 3 4 1015.8 1015.7 0.0
03/10:00pm 22.3 23.8 18.9 81 2.1 SW 9 11 5 6 1016.0 1015.9 0.0
03/09:30pm 22.1 24.3 19.5 85 1.7 WSW 7 9 4 5 1016.0 1015.9 0.0
03/09:00pm 21.7 23.8 19.4 87 1.5 WSW 7 9 4 5 1015.8 1015.7 0.0

Other Formats:

Comma delimited format used in spreadsheet applications
http://www.bom.gov.au/fwo/IDQ60801/IDQ60801.94592.axf

JavaScript Object Notation format (JSON) in row-major order
http://www.bom.gov.au/fwo/IDQ60801/IDQ60801.94592.json